Agua Colorada, Mexico

10:37 PM CDT on May 24, 2017 (GMT -0500)
De Guanajuato International | | Change Station

Elev 5968 ft 21.00 °N, 101.48 °W | Updated 47 minutes ago

Partly Cloudy
Partly Cloudy
81 °F
Feels Like 81 °F
N
0
Wind Variable Wind from North

Today
High -- | Low -- °F
--% Chance of Precip.
Yesterday
High -- | Low -- °F
Precip. -- in
Pressure 29.60 in
Visibility 7.0 miles
Clouds Few 3000 ft
Scattered Clouds 25000 ft
Dew Point 41 °F
Humidity 24%
Rainfall 0.00 in
Snow Depth Not available.
7:04 AM 8:19 PM
Waning Crescent, 1% visible
METAR MMLO 250250Z 00000KT 7SM FEW030 SCT250 27/05 A3011 RMK SLP021 52010 959 8/508 HZY
Pressure 29.60 in
Visibility 7.0 miles
Clouds Few 3000 ft
Scattered Clouds 25000 ft
Dew Point 41 °F
Humidity 24%
Rainfall 0.00 in
Snow Depth Not available.
7:04 AM 8:19 PM
Waning Crescent, 1% visible
METAR MMLO 250250Z 00000KT 7SM FEW030 SCT250 27/05 A3011 RMK SLP021 52010 959 8/508 HZY

Get Severe Weather Alerts

Thanks for signing up!

Be on the lookout for a verification email in your inbox.

You'll start receiving the daily forecast at 6 AM.

×

10-Day Weather Forecast

No radar image for this location.
×

Almanac

Astronomy

May. 24, 2017 Rise Set
Actual Time
Civil Twilight
Nautical Twilight
Astronomical Twilight
Moon
Length of Visible Light
Length of Day
Tomorrow will be .
, % of the Moon is Illuminated

Today's Extremes

Country Highs Country Lows

Community

WunderPhotos

Category 6

Welcome to Category 6. This is the collective home for Weather Underground's featured writeups by Dr. Jeff Masters (right), Bob Henson (left), Chris Burt, and other regular contributors.

Nearby

Air Quality

  Air Quality AQ Index Pollutant
Not available.

Snow Depth

Station Depth Elevation

Earthquake Activity

City Distance Mag. Time & Date
Minimum magnitude displayed is 2.5.

Coastal Water Temperatures

Place Temperature

Stations

Nearby Weather Stations

Station Location Temp. Windchill Dew Point Humidity Wind Precip. Elev Updated Type